createdAt,value
2022-11-23T00:00:41.853Z,5.33
2022-11-23T00:03:15.510Z,5.36
2022-11-23T00:05:43.226Z,5.39
2022-11-23T00:08:12.328Z,5.39
2022-11-23T00:10:40.006Z,5.36
2022-11-23T00:13:07.689Z,5.24
2022-11-23T00:15:35.600Z,5.23
2022-11-23T00:18:03.597Z,5.30
2022-11-23T00:20:31.550Z,5.28
2022-11-23T00:22:59.214Z,5.25
2022-11-23T00:25:28.341Z,5.22
2022-11-23T00:27:56.059Z,5.26
2022-11-23T00:30:24.268Z,5.32
2022-11-23T00:32:53.569Z,5.42
2022-11-23T00:35:21.321Z,5.49
2022-11-23T00:37:48.987Z,5.50
2022-11-23T00:40:17.583Z,5.57
2022-11-23T00:42:47.057Z,5.62
2022-11-23T00:45:14.725Z,5.66
2022-11-23T00:47:42.374Z,5.68
2022-11-23T00:50:10.782Z,5.75
2022-11-23T00:52:38.532Z,5.73
2022-11-23T00:55:07.237Z,5.71
2022-11-23T00:57:36.012Z,5.70
2022-11-23T01:00:06.581Z,5.81
2022-11-23T01:02:35.678Z,5.66
2022-11-23T01:05:03.847Z,5.60
2022-11-23T01:07:31.701Z,5.62
2022-11-23T01:09:59.471Z,5.64
2022-11-23T01:12:29.088Z,5.61
2022-11-23T01:14:56.802Z,5.66
2022-11-23T01:17:25.925Z,5.65
2022-11-23T01:19:53.572Z,5.67
2022-11-23T01:22:21.412Z,5.70
2022-11-23T01:24:51.797Z,5.82
2022-11-23T01:27:19.548Z,5.84
2022-11-23T01:29:47.254Z,5.83
2022-11-23T01:32:14.916Z,5.84
2022-11-23T01:34:43.958Z,5.86
2022-11-23T01:37:11.976Z,5.90
2022-11-23T01:39:39.684Z,5.95
2022-11-23T01:42:08.692Z,5.91
2022-11-23T01:44:38.553Z,6.06
2022-11-23T01:47:08.175Z,5.91
2022-11-23T01:49:40.474Z,5.88
2022-11-23T01:52:12.730Z,6.13
2022-11-23T01:54:45.606Z,5.92
2022-11-23T01:57:18.889Z,5.93
2022-11-23T01:59:48.077Z,5.91
2022-11-23T02:02:16.732Z,5.87
2022-11-23T02:04:47.093Z,5.87
2022-11-23T02:07:18.141Z,5.92
2022-11-23T02:09:47.110Z,5.99
2022-11-23T02:12:15.753Z,5.96
2022-11-23T02:14:45.777Z,5.94
2022-11-23T02:17:14.049Z,6.01
2022-11-23T02:19:50.164Z,5.96
2022-11-23T02:22:27.888Z,5.92
2022-11-23T02:24:56.693Z,5.91
2022-11-23T02:27:28.461Z,5.89
2022-11-23T02:30:00.712Z,5.90
2022-11-23T02:32:29.221Z,5.91
2022-11-23T02:34:57.285Z,5.88
2022-11-23T02:37:25.085Z,5.89
2022-11-23T02:39:55.386Z,5.88
2022-11-23T02:42:24.375Z,5.85
2022-11-23T02:45:05.553Z,5.79
2022-11-23T02:47:33.315Z,5.82
2022-11-23T02:50:02.046Z,5.85
2022-11-23T02:52:29.804Z,5.84
2022-11-23T02:54:58.090Z,5.85
2022-11-23T02:57:25.712Z,5.89
2022-11-23T02:59:54.707Z,5.89
2022-11-23T03:02:22.440Z,5.92
2022-11-23T03:04:50.544Z,5.96
2022-11-23T03:07:21.738Z,5.93
2022-11-23T03:09:50.939Z,5.96
2022-11-23T03:12:20.823Z,5.96
2022-11-23T03:14:48.601Z,5.95
2022-11-23T03:17:20.224Z,5.96
2022-11-23T03:19:47.905Z,6.00
2022-11-23T03:22:15.812Z,5.99
2022-11-23T03:24:43.580Z,6.02
2022-11-23T03:27:16.665Z,6.06
2022-11-23T03:29:45.319Z,6.05
2022-11-23T03:32:19.841Z,6.06
2022-11-23T03:34:51.319Z,6.03
2022-11-23T03:37:21.641Z,6.01
2022-11-23T03:39:49.732Z,6.01
2022-11-23T03:42:23.229Z,6.01
2022-11-23T03:44:51.704Z,6.01
2022-11-23T03:47:21.319Z,6.02
2022-11-23T03:49:49.416Z,6.01
2022-11-23T03:52:17.115Z,6.05
2022-11-23T03:54:46.979Z,6.01
2022-11-23T03:57:15.131Z,6.01
2022-11-23T03:59:42.795Z,6.01
2022-11-23T04:02:11.136Z,6.01
2022-11-23T04:04:48.984Z,6.00
2022-11-23T04:07:35.175Z,6.01
2022-11-23T04:10:06.816Z,6.01
2022-11-23T04:12:53.433Z,6.02
2022-11-23T04:15:21.660Z,6.02
2022-11-23T04:17:49.852Z,6.10
2022-11-23T04:20:19.348Z,6.06
2022-11-23T04:22:47.103Z,6.07
2022-11-23T04:25:15.527Z,6.07
2022-11-23T04:27:43.423Z,6.07
2022-11-23T04:30:12.201Z,6.08
2022-11-23T04:32:39.969Z,6.13
2022-11-23T04:35:08.301Z,6.09
2022-11-23T04:37:38.576Z,6.10
2022-11-23T04:40:07.637Z,6.09
2022-11-23T04:42:47.136Z,6.11
2022-11-23T04:45:15.501Z,6.10
2022-11-23T04:47:44.654Z,6.10
2022-11-23T04:50:14.856Z,6.11
2022-11-23T04:52:47.710Z,6.21
2022-11-23T04:55:20.414Z,6.20
2022-11-23T04:57:57.354Z,6.23
2022-11-23T05:00:28.905Z,6.40
2022-11-23T05:03:00.726Z,6.31
2022-11-23T05:05:31.940Z,6.22
2022-11-23T05:08:01.598Z,6.20
2022-11-23T05:10:42.034Z,6.19
2022-11-23T05:13:09.764Z,6.20
2022-11-23T05:15:37.831Z,6.17
2022-11-23T05:18:07.937Z,6.18
2022-11-23T05:20:37.645Z,6.17
2022-11-23T05:23:07.288Z,6.17
2022-11-23T05:25:36.853Z,6.24
2022-11-23T05:28:30.174Z,6.26
2022-11-23T05:30:54.617Z,6.17
2022-11-23T05:33:22.506Z,6.22
2022-11-23T05:35:51.176Z,6.20
2022-11-23T05:38:28.730Z,6.15
2022-11-23T05:40:59.960Z,6.15
2022-11-23T05:43:28.254Z,6.16
2022-11-23T05:45:59.279Z,6.18
2022-11-23T05:48:27.738Z,6.20
2022-11-23T05:51:04.857Z,6.19
2022-11-23T05:53:38.067Z,6.19
2022-11-23T05:56:15.682Z,6.18
2022-11-23T05:58:57.119Z,6.17
2022-11-23T06:01:25.013Z,6.14
2022-11-23T06:03:55.869Z,6.14
2022-11-23T06:06:24.572Z,6.14
2022-11-23T06:08:53.562Z,6.14
2022-11-23T06:11:21.326Z,6.12
2022-11-23T06:13:49.344Z,6.11
2022-11-23T06:16:18.453Z,6.13
2022-11-23T06:18:59.370Z,6.14
2022-11-23T06:21:27.016Z,6.15
2022-11-23T06:23:56.064Z,6.16
2022-11-23T06:26:24.309Z,6.16
2022-11-23T06:28:52.478Z,6.18
2022-11-23T06:31:20.250Z,6.15
2022-11-23T06:33:48.041Z,6.17
2022-11-23T06:36:16.530Z,6.19
2022-11-23T06:38:48.955Z,6.16
2022-11-23T06:41:30.929Z,6.21
2022-11-23T06:44:00.346Z,6.20
2022-11-23T06:46:38.722Z,6.17
2022-11-23T06:49:06.967Z,6.16
2022-11-23T06:51:34.846Z,6.21
2022-11-23T06:54:02.587Z,6.22
2022-11-23T06:56:33.521Z,6.22
2022-11-23T06:59:01.246Z,6.20
2022-11-23T07:01:29.237Z,6.23
2022-11-23T07:04:02.778Z,6.25
2022-11-23T07:06:34.397Z,6.26
2022-11-23T07:09:09.363Z,6.24
2022-11-23T07:11:56.479Z,6.25
2022-11-23T07:14:24.263Z,6.25
2022-11-23T07:16:52.950Z,6.23
2022-11-23T07:19:21.781Z,6.22
2022-11-23T07:21:51.200Z,6.21
2022-11-23T07:24:19.025Z,6.17
2022-11-23T07:26:46.782Z,6.15
2022-11-23T07:29:16.651Z,6.10
2022-11-23T07:31:44.535Z,6.06
2022-11-23T07:34:12.994Z,6.08
2022-11-23T07:36:40.791Z,6.09
2022-11-23T07:39:08.826Z,6.11
2022-11-23T07:41:37.755Z,6.15
2022-11-23T07:44:09.170Z,6.18
2022-11-23T07:46:38.220Z,6.19
2022-11-23T07:49:06.034Z,6.24
2022-11-23T07:51:34.164Z,6.24
2022-11-23T07:54:01.841Z,6.24
2022-11-23T07:56:29.607Z,6.27
2022-11-23T07:58:57.803Z,6.38
2022-11-23T08:01:26.105Z,6.46
2022-11-23T08:03:55.127Z,6.49
2022-11-23T08:06:29.201Z,6.51
2022-11-23T08:08:56.854Z,6.50
2022-11-23T08:11:24.541Z,6.51
2022-11-23T08:13:52.370Z,6.52
2022-11-23T08:16:20.343Z,6.59
2022-11-23T08:18:50.611Z,6.72
2022-11-23T08:21:19.662Z,6.83
2022-11-23T08:23:47.537Z,6.76
2022-11-23T08:26:15.338Z,6.88
2022-11-23T08:28:43.080Z,6.93
2022-11-23T08:31:12.343Z,6.90
2022-11-23T08:33:40.754Z,6.88
2022-11-23T08:36:10.109Z,7.01
2022-11-23T08:38:39.140Z,7.03
2022-11-23T08:41:07.033Z,6.91
2022-11-23T08:43:35.632Z,7.00
2022-11-23T08:46:10.867Z,7.06
2022-11-23T08:48:39.255Z,7.33
2022-11-23T08:51:07.732Z,7.21
2022-11-23T08:53:35.702Z,7.23
2022-11-23T08:56:07.593Z,7.23
2022-11-23T08:58:36.667Z,7.27
2022-11-23T09:01:09.135Z,7.29
2022-11-23T09:03:37.008Z,7.34
2022-11-23T09:06:04.944Z,7.37
2022-11-23T09:08:32.861Z,7.48
2022-11-23T09:11:01.250Z,7.51
2022-11-23T09:13:30.832Z,7.53
2022-11-23T09:15:59.742Z,7.66
2022-11-23T09:18:27.898Z,7.67
2022-11-23T09:20:55.591Z,7.71
2022-11-23T09:23:23.715Z,7.90
2022-11-23T09:25:51.387Z,7.88
2022-11-23T09:28:19.600Z,7.96
2022-11-23T09:30:49.036Z,8.04
2022-11-23T09:33:16.718Z,8.04
2022-11-23T09:35:44.463Z,8.02
2022-11-23T09:38:12.158Z,8.06
2022-11-23T09:40:41.818Z,8.11
2022-11-23T09:43:28.745Z,8.07
2022-11-23T09:46:04.266Z,8.13
2022-11-23T09:48:44.719Z,8.29
2022-11-23T09:51:17.172Z,8.44
2022-11-23T09:53:50.121Z,8.54
2022-11-23T09:56:20.577Z,8.45
2022-11-23T09:58:54.452Z,8.51
2022-11-23T10:01:23.725Z,8.57
2022-11-23T10:03:52.222Z,8.51
2022-11-23T10:06:21.768Z,8.69
2022-11-23T10:09:00.842Z,8.67
2022-11-23T10:12:05.773Z,8.71
2022-11-23T10:14:49.546Z,8.88
2022-11-23T10:17:30.450Z,8.93
2022-11-23T10:20:14.228Z,8.97
2022-11-23T10:22:49.093Z,8.92
2022-11-23T10:25:20.349Z,9.01
2022-11-23T10:27:50.349Z,9.04
2022-11-23T10:30:20.485Z,9.13
2022-11-23T10:32:55.113Z,9.09
2022-11-23T10:35:29.075Z,9.24
2022-11-23T10:38:15.060Z,9.25
2022-11-23T10:40:53.607Z,9.32
2022-11-23T10:43:26.214Z,9.39
2022-11-23T10:46:24.852Z,9.60
2022-11-23T10:48:54.568Z,9.52
2022-11-23T10:51:28.822Z,9.44
2022-11-23T10:54:04.938Z,9.36
2022-11-23T10:56:34.035Z,9.55
2022-11-23T10:59:01.960Z,9.45
2022-11-23T11:01:30.663Z,9.58
2022-11-23T11:04:04.464Z,9.40
2022-11-23T11:06:36.040Z,9.51
2022-11-23T11:09:10.810Z,9.48
2022-11-23T11:11:47.768Z,9.62
2022-11-23T11:14:17.928Z,9.53
2022-11-23T11:16:50.194Z,9.54
2022-11-23T11:19:28.354Z,9.63
2022-11-23T11:21:56.790Z,10.11
2022-11-23T11:24:32.656Z,9.73
2022-11-23T11:27:03.696Z,9.92
2022-11-23T11:29:39.167Z,9.65
2022-11-23T11:32:13.440Z,9.73
2022-11-23T11:34:47.559Z,9.63
2022-11-23T11:37:23.467Z,9.68
2022-11-23T11:39:56.910Z,9.69
2022-11-23T11:42:34.300Z,9.68
2022-11-23T11:45:06.228Z,9.85
2022-11-23T11:47:38.713Z,9.81
2022-11-23T11:50:20.377Z,9.74
2022-11-23T11:52:52.567Z,9.94
2022-11-23T11:55:25.077Z,10.14
2022-11-23T11:57:57.296Z,10.00
2022-11-23T12:00:25.875Z,9.94
2022-11-23T12:03:03.192Z,9.86
2022-11-23T12:05:41.037Z,9.95
2022-11-23T12:08:14.043Z,9.95
2022-11-23T12:10:46.093Z,10.17
2022-11-23T12:13:16.902Z,10.18
2022-11-23T12:15:50.161Z,9.98
2022-11-23T12:18:56.593Z,10.05
2022-11-23T12:21:40.491Z,9.99
2022-11-23T12:24:18.606Z,10.00
2022-11-23T12:26:53.152Z,9.98
2022-11-23T12:29:46.707Z,10.19
2022-11-23T12:32:24.478Z,10.09
2022-11-23T12:35:11.816Z,10.13
2022-11-23T12:37:56.571Z,10.12
2022-11-23T12:40:34.146Z,10.34
2022-11-23T12:43:04.914Z,10.09
2022-11-23T12:45:53.711Z,10.13
2022-11-23T12:48:37.911Z,9.95
2022-11-23T12:51:17.549Z,10.17
2022-11-23T12:53:55.739Z,9.99
2022-11-23T12:56:42.957Z,9.93
2022-11-23T12:59:12.437Z,9.90
2022-11-23T13:01:45.827Z,9.90
2022-11-23T13:04:43.600Z,9.87
2022-11-23T13:07:51.122Z,9.79
2022-11-23T13:10:36.654Z,9.83
2022-11-23T13:13:25.717Z,9.80
2022-11-23T13:16:23.112Z,9.65
2022-11-23T13:19:07.566Z,9.67
2022-11-23T13:21:38.876Z,9.82
2022-11-23T13:24:26.005Z,9.65
2022-11-23T13:27:31.455Z,9.71
2022-11-23T13:30:09.690Z,9.61
2022-11-23T13:32:54.115Z,9.54
2022-11-23T13:35:50.037Z,9.64
2022-11-23T13:38:26.788Z,9.92
2022-11-23T13:40:54.886Z,9.73
2022-11-23T13:43:27.306Z,9.67
2022-11-23T13:46:24.866Z,9.56
2022-11-23T13:48:57.089Z,9.58
2022-11-23T13:51:28.133Z,9.61
2022-11-23T13:54:02.937Z,9.56
2022-11-23T13:56:34.788Z,9.51
2022-11-23T13:59:30.209Z,9.59
2022-11-23T14:02:27.902Z,9.83
2022-11-23T14:05:34.189Z,9.80
2022-11-23T14:08:04.323Z,9.71
2022-11-23T14:10:33.191Z,9.90
2022-11-23T14:13:06.049Z,9.82
2022-11-23T14:15:37.205Z,9.68
2022-11-23T14:18:31.547Z,9.65
2022-11-23T14:21:13.846Z,9.59
2022-11-23T14:24:15.588Z,9.42
2022-11-23T14:26:52.948Z,9.31
2022-11-23T14:29:57.148Z,9.23
2022-11-23T14:32:41.324Z,9.19
2022-11-23T14:35:24.940Z,9.06
2022-11-23T14:38:10.394Z,9.09
2022-11-23T14:40:52.549Z,8.91
2022-11-23T14:43:20.958Z,8.80
2022-11-23T14:45:49.525Z,8.70
2022-11-23T14:48:24.968Z,8.61
2022-11-23T14:51:01.285Z,8.54
2022-11-23T14:53:31.975Z,8.47
2022-11-23T14:56:00.268Z,8.43
2022-11-23T14:58:31.506Z,8.34
2022-11-23T15:01:01.364Z,8.29
2022-11-23T15:06:25.608Z,8.25
2022-11-23T15:09:03.782Z,8.21
2022-11-23T15:11:35.357Z,8.16
2022-11-23T15:14:03.408Z,8.11
2022-11-23T15:16:40.107Z,8.07
2022-11-23T15:19:19.027Z,8.01
2022-11-23T15:21:49.480Z,7.94
2022-11-23T15:24:25.580Z,7.90
2022-11-23T15:26:54.217Z,7.89
2022-11-23T15:29:36.949Z,7.89
2022-11-23T15:32:30.573Z,7.92
2022-11-23T15:35:02.523Z,7.95
2022-11-23T15:37:32.362Z,8.00
2022-11-23T15:40:01.023Z,8.05
2022-11-23T15:42:29.861Z,8.11
2022-11-23T15:44:58.858Z,8.15
2022-11-23T15:47:30.794Z,8.17
2022-11-23T15:50:02.008Z,8.18
2022-11-23T15:52:35.822Z,8.21
2022-11-23T15:55:09.688Z,8.27
2022-11-23T15:57:39.329Z,8.34
2022-11-23T16:00:09.344Z,8.42
2022-11-23T16:02:40.179Z,8.51
2022-11-23T16:05:14.561Z,8.45
2022-11-23T16:07:54.814Z,8.45
2022-11-23T16:10:24.417Z,8.46
2022-11-23T16:12:54.969Z,8.44
2022-11-23T16:15:41.580Z,8.41
2022-11-23T16:18:21.816Z,8.40
2022-11-23T16:20:52.268Z,8.44
2022-11-23T16:23:24.746Z,8.44
2022-11-23T16:26:00.042Z,8.45
2022-11-23T16:28:30.449Z,8.43
2022-11-23T16:30:58.553Z,8.40
2022-11-23T16:33:26.807Z,8.36
2022-11-23T16:35:55.567Z,8.29
2022-11-23T16:38:25.473Z,8.20
2022-11-23T16:40:53.309Z,8.08
2022-11-23T16:43:22.255Z,8.04
2022-11-23T16:45:52.533Z,7.96
2022-11-23T16:48:43.007Z,7.97
2022-11-23T16:51:14.439Z,7.95
2022-11-23T16:54:16.185Z,7.90
2022-11-23T16:56:33.268Z,7.82
2022-11-23T16:59:01.013Z,7.77
2022-11-23T17:01:31.337Z,7.71
2022-11-23T17:03:59.213Z,7.60
2022-11-23T17:06:26.969Z,7.57
2022-11-23T17:09:03.107Z,7.51
2022-11-23T17:11:31.091Z,7.47
2022-11-23T17:13:59.802Z,7.44
2022-11-23T17:16:27.878Z,7.41
2022-11-23T17:18:55.666Z,7.40
2022-11-23T17:21:23.529Z,7.37
2022-11-23T17:23:51.952Z,7.33
2022-11-23T17:26:31.934Z,7.32
2022-11-23T17:29:01.899Z,7.32
2022-11-23T17:31:29.796Z,7.30
2022-11-23T17:33:57.679Z,7.31
2022-11-23T17:36:26.111Z,7.27
2022-11-23T17:38:54.844Z,7.26
2022-11-23T17:41:22.969Z,7.25
2022-11-23T17:43:52.883Z,7.24
2022-11-23T17:46:23.727Z,7.20
2022-11-23T17:48:55.202Z,7.17
2022-11-23T17:51:23.255Z,7.15
2022-11-23T17:53:52.206Z,7.15
2022-11-23T17:56:22.458Z,7.09
2022-11-23T17:58:53.090Z,7.06
2022-11-23T18:01:22.609Z,7.04
2022-11-23T18:03:50.634Z,7.08
2022-11-23T18:06:21.401Z,7.03
2022-11-23T18:08:51.675Z,7.04
2022-11-23T18:11:20.341Z,7.03
2022-11-23T18:13:50.638Z,7.04
2022-11-23T18:16:20.639Z,7.02
2022-11-23T18:18:48.554Z,7.02
2022-11-23T18:21:17.565Z,7.05
2022-11-23T18:23:45.710Z,7.06
2022-11-23T18:26:21.915Z,7.02
2022-11-23T18:28:50.680Z,7.06
2022-11-23T18:31:20.442Z,7.07
2022-11-23T18:33:48.629Z,7.11
2022-11-23T18:36:16.751Z,7.04
2022-11-23T18:38:45.731Z,7.03
2022-11-23T18:41:14.333Z,7.06
2022-11-23T18:43:42.024Z,7.07
2022-11-23T18:46:11.511Z,7.05
2022-11-23T18:48:41.185Z,7.09
2022-11-23T18:51:11.765Z,7.11
2022-11-23T18:53:40.905Z,7.12
2022-11-23T18:56:10.268Z,7.10
2022-11-23T18:58:40.150Z,7.09
2022-11-23T19:01:12.231Z,7.10
2022-11-23T19:03:44.407Z,7.10
2022-11-23T19:06:14.359Z,7.10
2022-11-23T19:08:43.948Z,7.10
2022-11-23T19:11:17.973Z,7.12
2022-11-23T19:13:48.819Z,7.12
2022-11-23T19:16:18.357Z,7.13
2022-11-23T19:18:48.736Z,7.15
2022-11-23T19:21:18.168Z,7.14
2022-11-23T19:23:50.441Z,7.16
2022-11-23T19:26:18.549Z,7.14
2022-11-23T19:28:46.641Z,7.15
2022-11-23T19:31:16.702Z,7.15
2022-11-23T19:33:45.825Z,7.12
2022-11-23T19:36:17.870Z,7.05
2022-11-23T19:38:45.917Z,7.08
2022-11-23T19:41:14.481Z,7.07
2022-11-23T19:43:42.518Z,7.01
2022-11-23T19:46:13.295Z,6.96
2022-11-23T19:48:42.148Z,6.91
2022-11-23T19:51:13.612Z,6.93
2022-11-23T19:53:46.215Z,6.88
2022-11-23T19:56:16.251Z,6.86
2022-11-23T19:58:45.430Z,6.84
2022-11-23T20:01:15.022Z,6.79
2022-11-23T20:03:46.020Z,6.69
2022-11-23T20:06:16.260Z,6.57
2022-11-23T20:08:46.117Z,6.45
2022-11-23T20:11:16.493Z,6.30
2022-11-23T20:13:44.769Z,6.16
2022-11-23T20:16:14.880Z,6.04
2022-11-23T20:18:42.940Z,5.96
2022-11-23T20:21:12.771Z,5.88
2022-11-23T20:23:41.206Z,5.78
2022-11-23T20:26:14.442Z,5.83
2022-11-23T20:28:42.567Z,5.86
2022-11-23T20:31:20.067Z,5.82
2022-11-23T20:33:50.487Z,5.73
2022-11-23T20:36:20.736Z,5.72
2022-11-23T20:38:49.234Z,5.77
2022-11-23T20:41:20.029Z,5.82
2022-11-23T20:43:49.805Z,5.88
2022-11-23T20:46:38.112Z,5.91
2022-11-23T20:49:06.059Z,5.95
2022-11-23T20:51:33.829Z,5.93
2022-11-23T20:54:01.541Z,5.92
2022-11-23T20:56:32.070Z,5.87
2022-11-23T20:59:00.886Z,5.89
2022-11-23T21:01:29.469Z,5.78
2022-11-23T21:03:59.228Z,5.79
2022-11-23T21:06:28.372Z,5.86
2022-11-23T21:08:56.320Z,5.99
2022-11-23T21:11:43.798Z,6.15
2022-11-23T21:14:18.246Z,6.19
2022-11-23T21:16:52.708Z,6.14
2022-11-23T21:19:21.816Z,6.00
2022-11-23T21:21:49.676Z,5.96
2022-11-23T21:24:17.629Z,6.02
2022-11-23T21:26:46.126Z,6.03
2022-11-23T21:29:16.237Z,5.99
2022-11-23T21:31:45.506Z,6.06
2022-11-23T21:34:19.113Z,6.14
2022-11-23T21:36:46.990Z,6.13
2022-11-23T21:39:15.374Z,6.04
2022-11-23T21:41:43.247Z,6.03
2022-11-23T21:44:11.777Z,5.98
2022-11-23T21:46:42.044Z,6.00
2022-11-23T21:49:10.795Z,6.09
2022-11-23T21:51:39.464Z,6.11
2022-11-23T21:54:09.895Z,6.07
2022-11-23T21:56:37.890Z,5.99
2022-11-23T21:59:05.971Z,6.17
2022-11-23T22:01:35.554Z,6.28
2022-11-23T22:04:08.678Z,6.36
2022-11-23T22:06:36.883Z,6.33
2022-11-23T22:09:06.403Z,6.32
2022-11-23T22:11:35.801Z,6.41
2022-11-23T22:14:07.244Z,6.30
2022-11-23T22:16:36.746Z,6.18
2022-11-23T22:19:06.852Z,6.07
2022-11-23T22:21:36.697Z,6.02
2022-11-23T22:24:05.760Z,5.92
2022-11-23T22:26:33.953Z,5.86
2022-11-23T22:29:05.949Z,5.89
2022-11-23T22:31:35.203Z,5.99
2022-11-23T22:34:05.524Z,6.30
2022-11-23T22:36:34.864Z,6.35
2022-11-23T22:39:05.114Z,6.56
2022-11-23T22:41:36.331Z,6.53
2022-11-23T22:44:05.205Z,6.66
2022-11-23T22:46:33.082Z,6.72
2022-11-23T22:49:01.804Z,6.52
2022-11-23T22:51:30.543Z,6.28
2022-11-23T22:54:01.233Z,6.16
2022-11-23T22:56:30.910Z,6.00
2022-11-23T22:58:59.767Z,5.99
2022-11-23T23:01:30.114Z,5.93
2022-11-23T23:04:00.502Z,5.84
2022-11-23T23:06:30.190Z,5.92
2022-11-23T23:09:01.178Z,5.93
2022-11-23T23:11:31.353Z,5.90
2022-11-23T23:13:59.781Z,5.85
2022-11-23T23:16:28.754Z,5.90
2022-11-23T23:18:57.683Z,6.00
2022-11-23T23:21:27.422Z,6.07
2022-11-23T23:23:57.259Z,6.13
2022-11-23T23:26:27.196Z,6.24
2022-11-23T23:28:56.354Z,6.27
2022-11-23T23:31:25.204Z,6.23
2022-11-23T23:33:53.806Z,6.29
2022-11-23T23:36:23.196Z,6.25
2022-11-23T23:38:51.196Z,6.33
2022-11-23T23:41:19.458Z,6.38
2022-11-23T23:43:48.864Z,6.40
2022-11-23T23:46:17.117Z,6.42
2022-11-23T23:48:44.902Z,6.49
2022-11-23T23:51:14.427Z,6.56
2022-11-23T23:53:42.914Z,6.66
2022-11-23T23:56:15.001Z,6.74
2022-11-23T23:58:42.999Z,6.83
